Time;durP1;ratioP1;P1;durP2;ratioP2;P2;SDS_P1;SDS_P2;PMS_P1;PMS_P2;Temp;Humidity;BMP_temperature;BMP_pressure;BME280_temperature;BME280_humidity;BME280_pressure;Samples;Min_cycle;Max_cycle;Signal;HPM_P1;HPM_P2
2022/03/07 06:57:57;;;;;;;;;;;0.00;1.00;;;;;;5151463;27;20287;-71
2022/03/07 07:00:22;;;;;;;;;;;0.00;1.00;;;;;;5150601;27;19911;-69
2022/03/07 07:02:48;;;;;;;;;;;0.10;1.00;;;;;;5150951;27;19937;-72
2022/03/07 07:05:14;;;;;;;;;;;;;;;;;;5151908;27;19908;-74
2022/03/07 07:07:40;;;;;;;;;;;0.10;1.00;;;;;;5138069;27;20381;-73
2022/03/07 07:10:06;;;;;;;;;;;0.20;1.00;;;;;;5143147;27;19913;-73
2022/03/07 07:12:33;;;;;;;;;;;0.30;1.00;;;;;;5132375;27;19919;-72
2022/03/07 07:14:58;;;;;;;;;;;0.40;1.00;;;;;;5144030;27;19911;-72
2022/03/07 07:17:23;;;;;;;;;;;0.40;1.00;;;;;;5138224;27;19917;-73
2022/03/07 07:19:49;;;;;;;;;;;0.40;1.00;;;;;;5121233;27;19911;-72
2022/03/07 07:22:15;;;;;;;;;;;;;;;;;;5120421;27;20371;-74
2022/03/07 07:24:40;;;;;;;;;;;0.50;1.00;;;;;;5139168;27;19952;-71
2022/03/07 07:27:06;;;;;;;;;;;0.60;1.00;;;;;;5138287;27;19922;-71
2022/03/07 07:29:32;;;;;;;;;;;0.60;1.00;;;;;;5129172;28;19971;-72
2022/03/07 07:31:58;;;;;;;;;;;0.60;1.00;;;;;;5151162;27;19918;-71
2022/03/07 07:34:24;;;;;;;;;;;0.60;1.00;;;;;;5131358;27;19907;-71
2022/03/07 07:36:49;;;;;;;;;;;0.70;1.00;;;;;;5150706;27;19918;-71
2022/03/07 07:39:15;;;;;;;;;;;;;;;;;;5142585;27;20269;-74
2022/03/07 07:41:41;;;;;;;;;;;0.70;1.00;;;;;;5129859;28;19908;-73
2022/03/07 07:44:07;;;;;;;;;;;0.70;1.00;;;;;;5130147;28;20068;-71
2022/03/07 07:46:32;;;;;;;;;;;0.80;1.00;;;;;;5129517;28;19919;-71
2022/03/07 07:48:58;;;;;;;;;;;0.80;1.00;;;;;;5111355;28;20305;-72
2022/03/07 07:51:23;;;;;;;;;;;0.90;1.00;;;;;;5111050;28;19908;-71
2022/03/07 07:53:49;;;;;;;;;;;1.00;1.00;;;;;;5129915;28;20006;-71
2022/03/07 07:56:15;;;;;;;;;;;;;;;;;;5129068;28;20006;-75
2022/03/07 07:58:41;;;;;;;;;;;1.00;1.00;;;;;;5129503;28;19907;-72
2022/03/07 08:01:06;;;;;;;;;;;1.10;1.00;;;;;;5129738;28;20272;-71
2022/03/07 08:03:32;;;;;;;;;;;1.20;1.00;;;;;;5128923;28;19915;-72
2022/03/07 08:05:58;;;;;;;;;;;1.20;1.00;;;;;;5132550;27;19911;-71
2022/03/07 08:08:23;;;;;;;;;;;1.20;1.00;;;;;;5135287;27;19907;-70
2022/03/07 08:10:49;;;;;;;;;;;1.20;1.00;;;;;;5127913;27;19920;-71
2022/03/07 08:13:15;;;;;;;;;;;;;;;;;;5115583;27;19912;-74
2022/03/07 08:15:40;;;;;;;;;;;1.40;1.00;;;;;;5119603;27;20394;-72
2022/03/07 08:18:06;;;;;;;;;;;1.40;1.00;;;;;;5101314;28;19908;-72
2022/03/07 08:20:32;;;;;;;;;;;1.40;1.00;;;;;;5096418;28;19919;-72
2022/03/07 08:22:58;;;;;;;;;;;1.40;1.00;;;;;;5115627;28;19908;-71
2022/03/07 08:25:23;;;;;;;;;;;1.50;1.00;;;;;;5114749;28;19914;-71
2022/03/07 08:27:49;;;;;;;;;;;1.50;1.00;;;;;;5103094;27;19922;-71
2022/03/07 08:30:15;;;;;;;;;;;1.50;1.00;;;;;;5127103;27;19914;-71
2022/03/07 08:32:41;;;;;;;;;;;;;;;;;;5110969;27;20002;-70
2022/03/07 08:35:07;;;;;;;;;;;1.70;1.00;;;;;;5129701;27;19955;-67
2022/03/07 08:37:33;;;;;;;;;;;1.70;1.00;;;;;;5127583;27;19911;-69
2022/03/07 08:40:03;;;;;;;;;;;1.80;1.00;;;;;;5105849;27;20414;-69
2022/03/07 08:42:28;;;;;;;;;;;1.80;1.00;;;;;;5103763;28;19961;-67
2022/03/07 08:44:54;;;;;;;;;;;;;;;;;;5123255;27;19920;-70
2022/03/07 08:47:20;;;;;;;;;;;;;;;;;;5123286;27;19908;-71
2022/03/07 08:49:46;;;;;;;;;;;1.90;1.00;;;;;;5125560;27;19908;-67
2022/03/07 08:52:15;;;;;;;;;;;1.90;1.00;;;;;;5137047;27;19955;-66
2022/03/07 08:54:44;;;;;;;;;;;1.80;1.00;;;;;;5130342;27;20411;-65
2022/03/07 08:57:10;;;;;;;;;;;;;;;;;;5126708;27;19927;-68
2022/03/07 08:59:35;;;;;;;;;;;1.90;1.00;;;;;;5136948;27;19907;-68
2022/03/07 09:02:01;;;;;;;;;;;2.00;1.00;;;;;;5136146;27;19915;-72
2022/03/07 09:04:27;;;;;;;;;;;;;;;;;;5134330;27;19911;-72
2022/03/07 09:06:52;;;;;;;;;;;2.10;1.00;;;;;;5135204;27;20435;-72
2022/03/07 09:09:18;;;;;;;;;;;;;;;;;;5135184;27;19908;-75
2022/03/07 09:11:44;;;;;;;;;;;2.20;1.00;;;;;;5134483;27;20359;-83
2022/03/07 09:14:09;;;;;;;;;;;2.30;1.00;;;;;;5123025;27;20386;-69
2022/03/07 09:16:35;;;;;;;;;;;2.40;1.00;;;;;;5122065;27;19961;-69
2022/03/07 09:19:00;;;;;;;;;;;2.50;1.00;;;;;;5106332;28;19914;-70
2022/03/07 09:21:26;;;;;;;;;;;2.40;1.00;;;;;;5131273;27;19911;-71
2022/03/07 09:23:51;;;;;;;;;;;2.40;1.00;;;;;;5134854;27;19908;-71
2022/03/07 09:26:17;;;;;;;;;;;0.30;1.00;;;;;;5135127;27;19954;-69
2022/03/07 09:28:43;;;;;;;;;;;2.50;1.00;;;;;;5126587;27;19995;-69
2022/03/07 09:31:08;;;;;;;;;;;2.60;1.00;;;;;;5107065;27;19918;-68
2022/03/07 09:33:34;;;;;;;;;;;2.70;1.00;;;;;;5127519;27;19907;-69
2022/03/07 09:36:00;;;;;;;;;;;2.60;1.00;;;;;;5122763;27;19919;-70
2022/03/07 09:38:27;;;;;;;;;;;;;;;;;;5114748;27;19915;-70
2022/03/07 09:40:53;;;;;;;;;;;2.70;1.00;;;;;;5134433;27;19907;-70
2022/03/07 09:43:19;;;;;;;;;;;2.70;1.00;;;;;;5118525;27;20002;-69
2022/03/07 09:45:45;;;;;;;;;;;2.70;1.00;;;;;;5094396;28;20000;-70
2022/03/07 09:48:13;;;;;;;;;;;2.80;1.00;;;;;;5133033;27;19914;-70
2022/03/07 09:50:39;;;;;;;;;;;2.90;1.00;;;;;;5133368;27;19918;-70
2022/03/07 09:53:06;;;;;;;;;;;3.20;1.00;;;;;;5115830;27;20347;-70
2022/03/07 09:55:31;;;;;;;;;;;3.20;1.00;;;;;;5114588;27;19931;-70
2022/03/07 09:57:58;;;;;;;;;;;3.20;1.00;;;;;;5134227;27;20256;-69
2022/03/07 10:00:24;;;;;;;;;;;;;;;;;;5133723;27;19907;-72
2022/03/07 10:02:57;;;;;;;;;;;3.20;1.00;;;;;;5134107;27;19913;-70
2022/03/07 10:05:23;;;;;;;;;;;;;;;;;;5133905;27;19947;-72
2022/03/07 10:07:49;;;;;;;;;;;;;;;;;;5115106;27;19958;-70
2022/03/07 10:10:14;;;;;;;;;;;;;;;;;;5133526;27;19912;-70
2022/03/07 10:12:50;;;;;;;;;;;3.50;1.00;;;;;;5133316;27;20351;-70
2022/03/07 10:15:17;;;;;;;;;;;3.60;1.00;;;;;;5133844;27;19954;-70
2022/03/07 10:17:50;;;;;;;;;;;3.50;1.00;;;;;;5132927;27;20432;-71
2022/03/07 10:20:20;;;;;;;;;;;3.80;1.00;;;;;;5133808;27;20363;-70
2022/03/07 10:22:47;;;;;;;;;;;3.70;1.00;;;;;;5114496;27;20538;-70
2022/03/07 10:25:12;;;;;;;;;;;3.60;1.00;;;;;;5133699;27;19907;-70
2022/03/07 10:27:44;;;;;;;;;;;3.80;1.00;;;;;;5132889;27;19951;-73
2022/03/07 10:30:12;;;;;;;;;;;4.00;1.00;;;;;;5133749;27;19907;-71
2022/03/07 10:32:37;;;;;;;;;;;4.00;1.00;;;;;;5132903;27;19911;-71
2022/03/07 10:35:03;;;;;;;;;;;3.90;1.00;;;;;;5131412;27;20048;-70
2022/03/07 10:37:33;;;;;;;;;;;3.80;1.00;;;;;;5112201;28;19922;-71
2022/03/07 10:39:58;;;;;;;;;;;3.80;1.00;;;;;;5113013;28;20283;-71
2022/03/07 10:42:24;;;;;;;;;;;;;;;;;;5112983;28;19912;-71
2022/03/07 10:44:50;;;;;;;;;;;4.20;1.00;;;;;;5112344;28;19979;-71
2022/03/07 10:47:19;;;;;;;;;;;4.40;1.00;;;;;;5124516;27;19908;-71
2022/03/07 10:49:45;;;;;;;;;;;;;;;;;;5132586;27;19907;-71
2022/03/07 10:52:10;;;;;;;;;;;4.30;1.00;;;;;;5114888;27;19908;-72
2022/03/07 10:54:36;;;;;;;;;;;4.50;1.00;;;;;;5132572;28;19915;-71
2022/03/07 10:57:02;;;;;;;;;;;4.40;1.00;;;;;;5114604;28;19923;-70
2022/03/07 10:59:28;;;;;;;;;;;;;;;;;;5132976;28;19911;-73
2022/03/07 11:01:58;;;;;;;;;;;4.40;1.00;;;;;;5133059;28;20002;-71
2022/03/07 11:04:23;;;;;;;;;;;4.50;1.00;;;;;;5114821;28;20309;-71
2022/03/07 11:06:49;;;;;;;;;;;4.70;1.00;;;;;;5115886;28;19908;-71
2022/03/07 11:09:14;;;;;;;;;;;4.70;1.00;;;;;;5131629;28;19914;-71
2022/03/07 11:11:40;;;;;;;;;;;4.70;1.00;;;;;;5132386;28;19908;-72
2022/03/07 11:14:06;;;;;;;;;;;;;;;;;;5133095;28;19915;-70
2022/03/07 11:16:31;;;;;;;;;;;4.80;1.00;;;;;;5114364;28;19912;-72
2022/03/07 11:18:58;;;;;;;;;;;4.80;1.00;;;;;;5115955;28;20006;-71
2022/03/07 11:21:25;;;;;;;;;;;4.60;1.00;;;;;;5115612;28;20392;-72
2022/03/07 11:23:51;;;;;;;;;;;4.60;1.00;;;;;;5130247;28;19908;-71
2022/03/07 11:26:23;;;;;;;;;;;5.00;1.00;;;;;;5111690;28;19979;-72
2022/03/07 11:28:52;;;;;;;;;;;;;;;;;;5130325;28;19903;-72
2022/03/07 11:31:18;;;;;;;;;;;;;;;;;;5131237;28;20424;-72
2022/03/07 11:33:44;;;;;;;;;;;;;;;;;;5129682;28;19907;-71
2022/03/07 11:36:10;;;;;;;;;;;;;;;;;;5130576;28;19915;-72
2022/03/07 11:38:36;;;;;;;;;;;;;;;;;;5110423;28;19918;-72
2022/03/07 11:41:02;;;;;;;;;;;;;;;;;;5106378;28;19915;-72
2022/03/07 11:43:28;;;;;;;;;;;;;;;;;;5114435;27;20007;-72
2022/03/07 11:45:54;;;;;;;;;;;5.70;1.00;;;;;;5094164;28;20006;-72
2022/03/07 11:48:20;;;;;;;;;;;5.90;1.00;;;;;;5094153;28;20280;-72
2022/03/07 11:50:46;;;;;;;;;;;;;;;;;;5112069;28;19907;-72
2022/03/07 11:53:14;;;;;;;;;;;;;;;;;;5112928;28;19912;-72
2022/03/07 11:55:40;;;;;;;;;;;;;;;;;;5111609;28;19934;-72
2022/03/07 11:58:06;;;;;;;;;;;;;;;;;;5124995;27;19915;-72
2022/03/07 12:00:34;;;;;;;;;;;;;;;;;;5132227;27;20429;-74
2022/03/07 12:03:00;;;;;;;;;;;;;;;;;;5114674;27;20342;-72
2022/03/07 12:05:26;;;;;;;;;;;;;;;;;;5133001;27;19940;-73
2022/03/07 12:07:52;;;;;;;;;;;;;;;;;;5132073;27;19994;-73
2022/03/07 12:10:17;;;;;;;;;;;6.50;1.00;;;;;;5115213;27;20391;-72
2022/03/07 12:12:43;;;;;;;;;;;;;;;;;;5131688;27;20374;-72
2022/03/07 12:15:09;;;;;;;;;;;;;;;;;;5114736;27;19922;-73
2022/03/07 12:17:35;;;;;;;;;;;;;;;;;;5114064;27;19911;-73
2022/03/07 12:20:01;;;;;;;;;;;;;;;;;;5133053;27;19998;-73
2022/03/07 12:22:28;;;;;;;;;;;6.60;1.00;;;;;;5114440;27;19918;-73
2022/03/07 12:24:56;;;;;;;;;;;6.50;1.00;;;;;;5131332;27;19907;-73
2022/03/07 12:27:22;;;;;;;;;;;;;;;;;;5132995;27;19937;-73
2022/03/07 12:29:48;;;;;;;;;;;;;;;;;;5100220;28;20506;-75
2022/03/07 12:32:14;;;;;;;;;;;;;;;;;;5093708;28;19908;-75
2022/03/07 12:34:41;;;;;;;;;;;6.80;1.00;;;;;;5114291;27;19915;-74
2022/03/07 12:37:08;;;;;;;;;;;;;;;;;;5127709;27;19915;-72
2022/03/07 12:39:34;;;;;;;;;;;;;;;;;;5135210;27;19997;-75
2022/03/07 12:42:01;;;;;;;;;;;6.90;1.00;;;;;;5135353;27;19959;-74
2022/03/07 12:44:26;;;;;;;;;;;6.90;1.00;;;;;;5117056;27;19940;-74
2022/03/07 12:46:52;;;;;;;;;;;6.90;1.00;;;;;;5116412;27;20028;-76
2022/03/07 12:49:18;;;;;;;;;;;7.00;1.00;;;;;;5117065;27;19914;-75
2022/03/07 12:51:44;;;;;;;;;;;7.20;1.00;;;;;;5134696;27;19914;-75
2022/03/07 12:54:09;;;;;;;;;;;7.40;1.00;;;;;;5135304;27;19911;-74
2022/03/07 12:56:35;;;;;;;;;;;;;;;;;;5134615;27;20283;-75
2022/03/07 12:59:01;;;;;;;;;;;7.40;1.00;;;;;;5135156;27;19908;-75
2022/03/07 13:01:27;;;;;;;;;;;7.10;1.00;;;;;;5135340;27;19911;-74
2022/03/07 13:03:53;;;;;;;;;;;;;;;;;;5134472;27;20280;-75
2022/03/07 13:06:19;;;;;;;;;;;7.40;1.00;;;;;;5135294;27;19908;-75
2022/03/07 13:08:53;;;;;;;;;;;7.70;1.00;;;;;;5134229;27;19907;-76
2022/03/07 13:11:38;;;;;;;;;;;8.00;1.00;;;;;;5135098;27;19952;-75
2022/03/07 13:14:04;;;;;;;;;;;8.00;1.00;;;;;;5113564;27;19922;-76
2022/03/07 13:16:34;;;;;;;;;;;8.10;1.00;;;;;;5123927;27;19919;-74
2022/03/07 13:19:00;;;;;;;;;;;8.10;1.00;;;;;;5113779;28;20357;-73
2022/03/07 13:21:27;;;;;;;;;;;7.80;1.00;;;;;;5107227;27;19918;-72
2022/03/07 13:23:53;;;;;;;;;;;7.80;1.00;;;;;;5112161;27;19916;-70
2022/03/07 13:26:23;;;;;;;;;;;7.90;1.00;;;;;;5122091;27;19920;-69
2022/03/07 13:28:48;;;;;;;;;;;8.20;1.00;;;;;;5134055;27;19950;-72
2022/03/07 13:31:14;;;;;;;;;;;8.30;1.00;;;;;;5134740;27;19915;-70
2022/03/07 13:33:40;;;;;;;;;;;8.30;1.00;;;;;;5125252;27;19938;-70
2022/03/07 13:36:06;;;;;;;;;;;;;;;;;;5100075;28;20423;-69
2022/03/07 13:38:36;;;;;;;;;;;7.50;1.00;;;;;;5118991;27;20372;-70
2022/03/07 13:41:05;;;;;;;;;;;7.80;1.00;;;;;;5132498;27;19939;-68
2022/03/07 13:43:31;;;;;;;;;;;8.10;1.00;;;;;;5119586;27;20007;-69
2022/03/07 13:45:57;;;;;;;;;;;8.40;1.00;;;;;;5115914;27;19987;-74
2022/03/07 13:48:23;;;;;;;;;;;8.30;1.00;;;;;;5119758;27;19912;-72
2022/03/07 13:50:51;;;;;;;;;;;8.40;1.00;;;;;;5106918;27;20367;-72
2022/03/07 13:53:18;;;;;;;;;;;8.30;1.00;;;;;;5131868;27;19911;-74
2022/03/07 13:55:45;;;;;;;;;;;;;;;;;;5132860;27;19968;-69
2022/03/07 13:58:11;;;;;;;;;;;;;;;;;;5133854;27;19912;-74
2022/03/07 14:00:37;;;;;;;;;;;;;;;;;;5134086;27;19907;-75
2022/03/07 14:03:04;;;;;;;;;;;8.50;1.00;;;;;;5133397;27;19908;-74
2022/03/07 14:05:30;;;;;;;;;;;;;;;;;;5114963;27;19918;-74
2022/03/07 14:07:56;;;;;;;;;;;8.50;1.00;;;;;;5132794;27;19907;-75
2022/03/07 14:10:21;;;;;;;;;;;;;;;;;;5113314;28;20360;-74
2022/03/07 14:12:50;;;;;;;;;;;8.80;1.00;;;;;;5112567;28;19959;-74
2022/03/07 14:15:15;;;;;;;;;;;8.50;1.00;;;;;;5095115;28;19908;-74
2022/03/07 14:17:41;;;;;;;;;;;;;;;;;;5094391;28;19919;-75
2022/03/07 14:20:08;;;;;;;;;;;8.50;1.00;;;;;;5094944;28;19908;-74
2022/03/07 14:22:34;;;;;;;;;;;8.60;1.00;;;;;;5113347;28;19956;-74
2022/03/07 14:25:00;;;;;;;;;;;9.00;1.00;;;;;;5094166;28;20400;-74
2022/03/07 14:27:28;;;;;;;;;;;8.60;1.00;;;;;;5107701;27;19923;-73
2022/03/07 14:29:54;;;;;;;;;;;8.70;1.00;;;;;;5114429;27;20482;-73
2022/03/07 14:32:20;;;;;;;;;;;;;;;;;;5115259;27;19919;-73
2022/03/07 14:34:45;;;;;;;;;;;8.70;1.00;;;;;;5132811;27;20275;-74
2022/03/07 14:37:11;;;;;;;;;;;9.10;1.00;;;;;;5133703;27;19912;-74
2022/03/07 14:39:37;;;;;;;;;;;9.20;1.00;;;;;;5133450;27;19914;-74
2022/03/07 14:42:03;;;;;;;;;;;;;;;;;;5114428;28;20552;-74
2022/03/07 14:44:29;;;;;;;;;;;9.40;1.00;;;;;;5133545;27;20364;-74
2022/03/07 14:46:55;;;;;;;;;;;9.60;1.00;;;;;;5132731;27;20366;-75
2022/03/07 14:49:21;;;;;;;;;;;9.70;1.00;;;;;;5133429;27;19946;-74
2022/03/07 14:51:47;;;;;;;;;;;9.20;1.00;;;;;;5132641;27;20390;-75
2022/03/07 14:54:13;;;;;;;;;;;9.50;1.00;;;;;;5133482;27;20387;-74
2022/03/07 14:56:38;;;;;;;;;;;9.20;1.00;;;;;;5132990;28;19923;-75
2022/03/07 14:59:05;;;;;;;;;;;8.70;1.00;;;;;;5132594;28;19907;-74
2022/03/07 15:01:31;;;;;;;;;;;9.00;1.00;;;;;;5133406;28;19956;-74
2022/03/07 15:03:57;;;;;;;;;;;;;;;;;;5132472;28;19908;-74
2022/03/07 15:06:25;;;;;;;;;;;9.80;1.00;;;;;;5133300;28;19907;-75
2022/03/07 15:08:50;;;;;;;;;;;10.20;1.00;;;;;;5132363;28;19914;-75
2022/03/07 15:11:16;;;;;;;;;;;10.00;1.00;;;;;;5133248;28;19907;-75
2022/03/07 15:13:42;;;;;;;;;;;;;;;;;;5114604;28;19908;-77
2022/03/07 15:16:07;;;;;;;;;;;9.90;1.00;;;;;;5132646;28;19919;-76
2022/03/07 15:18:33;;;;;;;;;;;9.90;1.00;;;;;;5135713;27;20388;-76
2022/03/07 15:21:02;;;;;;;;;;;10.10;1.00;;;;;;5136546;27;20379;-76
2022/03/07 15:23:28;;;;;;;;;;;10.00;1.00;;;;;;5137264;27;19907;-76
2022/03/07 15:25:54;;;;;;;;;;;;;;;;;;5136545;27;20259;-76
2022/03/07 15:28:23;;;;;;;;;;;9.60;1.00;;;;;;5136976;27;19911;-76
2022/03/07 15:30:48;;;;;;;;;;;10.20;1.00;;;;;;5136370;27;19908;-76
2022/03/07 15:33:14;;;;;;;;;;;9.70;1.00;;;;;;5118724;27;19984;-76
2022/03/07 15:35:39;;;;;;;;;;;9.50;1.00;;;;;;5118503;27;19913;-76
2022/03/07 15:38:05;;;;;;;;;;;9.50;1.00;;;;;;5136224;27;20529;-75
2022/03/07 15:40:31;;;;;;;;;;;;;;;;;;5118908;27;19930;-74
2022/03/07 15:42:56;;;;;;;;;;;;;;;;;;5112852;27;19915;-75
2022/03/07 15:45:22;;;;;;;;;;;;;;;;;;5112750;28;19911;-75
2022/03/07 15:47:48;;;;;;;;;;;;;;;;;;5111924;28;20386;-76
2022/03/07 15:50:14;;;;;;;;;;;;;;;;;;5094422;28;19919;-77
2022/03/07 15:52:40;;;;;;;;;;;;;;;;;;5093911;28;19912;-73
2022/03/07 15:55:06;;;;;;;;;;;;;;;;;;5112019;28;20167;-73
2022/03/07 15:57:32;;;;;;;;;;;9.80;1.00;;;;;;5112401;28;19963;-74
2022/03/07 15:59:58;;;;;;;;;;;;;;;;;;5093484;28;20363;-71
2022/03/07 16:02:23;;;;;;;;;;;;;;;;;;5114075;27;19912;-75
2022/03/07 16:04:49;;;;;;;;;;;;;;;;;;5111319;28;20468;-76
2022/03/07 16:07:16;;;;;;;;;;;;;;;;;;5112525;28;19908;-74
2022/03/07 16:09:41;;;;;;;;;;;10.00;1.00;;;;;;5121650;27;19918;-73
2022/03/07 16:12:07;;;;;;;;;;;;;;;;;;5132083;27;19968;-73
2022/03/07 16:14:33;;;;;;;;;;;9.40;1.00;;;;;;5132310;27;19907;-72
2022/03/07 16:16:59;;;;;;;;;;;;;;;;;;5135312;27;19919;-72
2022/03/07 16:19:25;;;;;;;;;;;9.00;1.00;;;;;;5121383;27;19994;-73
2022/03/07 16:21:50;;;;;;;;;;;9.00;1.00;;;;;;5115065;28;19999;-73
2022/03/07 16:24:16;;;;;;;;;;;;;;;;;;5115528;28;19908;-72
2022/03/07 16:26:42;;;;;;;;;;;;;;;;;;5112421;28;19916;-73
2022/03/07 16:29:08;;;;;;;;;;;;;;;;;;5113977;27;19940;-73
2022/03/07 16:31:34;;;;;;;;;;;;;;;;;;5120139;27;19918;-73
2022/03/07 16:34:00;;;;;;;;;;;;;;;;;;5121220;27;19911;-73
2022/03/07 16:36:26;;;;;;;;;;;;;;;;;;5113974;27;19936;-72
2022/03/07 16:38:51;;;;;;;;;;;8.70;1.00;;;;;;5112613;27;19962;-71
2022/03/07 16:41:18;;;;;;;;;;;;;;;;;;5121742;27;20291;-73
2022/03/07 16:43:43;;;;;;;;;;;8.60;1.00;;;;;;5118408;27;19912;-73
2022/03/07 16:46:09;;;;;;;;;;;8.40;1.00;;;;;;5113531;28;19972;-72
2022/03/07 16:48:35;;;;;;;;;;;8.40;1.00;;;;;;5096681;28;19911;-72
2022/03/07 16:51:01;;;;;;;;;;;7.70;1.00;;;;;;5120191;27;19956;-72
2022/03/07 16:53:27;;;;;;;;;;;7.30;1.00;;;;;;5117276;27;19911;-72
2022/03/07 16:55:52;;;;;;;;;;;7.90;1.00;;;;;;5113989;28;19930;-73
2022/03/07 16:58:18;;;;;;;;;;;7.90;1.00;;;;;;5096662;28;20383;-71
2022/03/07 17:00:43;;;;;;;;;;;7.90;1.00;;;;;;5114872;28;19909;-71
2022/03/07 17:03:09;;;;;;;;;;;7.60;1.00;;;;;;5114300;28;19926;-71
2022/03/07 17:05:35;;;;;;;;;;;;;;;;;;5114773;28;19961;-71
2022/03/07 17:08:00;;;;;;;;;;;7.10;1.00;;;;;;5113923;28;19912;-72
2022/03/07 17:10:26;;;;;;;;;;;7.00;1.00;;;;;;5109654;27;19912;-68
2022/03/07 17:12:52;;;;;;;;;;;;;;;;;;5134697;27;19915;-74
2022/03/07 17:15:18;;;;;;;;;;;6.90;1.00;;;;;;5135253;27;20367;-68
2022/03/07 17:17:44;;;;;;;;;;;6.70;1.00;;;;;;5134977;27;19919;-69
2022/03/07 17:20:11;;;;;;;;;;;6.70;1.00;;;;;;5134225;27;20521;-70
2022/03/07 17:22:37;;;;;;;;;;;6.40;1.00;;;;;;5135001;27;19954;-70
2022/03/07 17:25:03;;;;;;;;;;;;;;;;;;5133987;27;20338;-73
2022/03/07 17:27:29;;;;;;;;;;;6.50;1.00;;;;;;5120168;27;19917;-70
2022/03/07 17:29:54;;;;;;;;;;;6.60;1.00;;;;;;5127378;27;20295;-70
2022/03/07 17:32:20;;;;;;;;;;;6.20;1.00;;;;;;5134715;27;19967;-71
2022/03/07 17:34:45;;;;;;;;;;;6.20;1.00;;;;;;5134748;27;19908;-71
2022/03/07 17:37:14;;;;;;;;;;;6.20;1.00;;;;;;5128905;27;20515;-72
2022/03/07 17:39:39;;;;;;;;;;;6.10;1.00;;;;;;5134154;27;19911;-72
2022/03/07 17:42:05;;;;;;;;;;;6.10;1.00;;;;;;5133277;27;19908;-73
2022/03/07 17:44:31;;;;;;;;;;;6.20;1.00;;;;;;5125071;27;19946;-73
2022/03/07 17:46:56;;;;;;;;;;;6.00;1.00;;;;;;5121055;27;19912;-74
2022/03/07 17:49:22;;;;;;;;;;;6.00;1.00;;;;;;5127118;27;20351;-71
2022/03/07 17:51:47;;;;;;;;;;;5.80;1.00;;;;;;5123883;27;19960;-71
2022/03/07 17:54:13;;;;;;;;;;;5.60;1.00;;;;;;5123528;27;19911;-72
2022/03/07 17:56:39;;;;;;;;;;;;;;;;;;5104831;27;19931;-72
2022/03/07 17:59:04;;;;;;;;;;;5.30;1.00;;;;;;5121821;27;19943;-73
2022/03/07 18:01:30;;;;;;;;;;;;;;;;;;5123040;27;19957;-72
2022/03/07 18:03:56;;;;;;;;;;;5.40;1.00;;;;;;5129677;27;19933;-72
2022/03/07 18:06:22;;;;;;;;;;;5.50;1.00;;;;;;5134050;27;20085;-71
2022/03/07 18:08:47;;;;;;;;;;;5.40;1.00;;;;;;5105557;28;20392;-71
2022/03/07 18:11:13;;;;;;;;;;;5.40;1.00;;;;;;5107466;27;19939;-71
2022/03/07 18:13:38;;;;;;;;;;;5.30;1.00;;;;;;5114742;27;20395;-72
2022/03/07 18:16:04;;;;;;;;;;;5.10;1.00;;;;;;5112495;28;19912;-72
2022/03/07 18:18:29;;;;;;;;;;;5.20;1.00;;;;;;5108103;27;19919;-72
2022/03/07 18:20:55;;;;;;;;;;;;;;;;;;5133300;27;19908;-74
2022/03/07 18:23:21;;;;;;;;;;;5.00;1.00;;;;;;5133877;27;19912;-71
2022/03/07 18:25:48;;;;;;;;;;;4.90;1.00;;;;;;5133881;27;20014;-72
2022/03/07 18:28:14;;;;;;;;;;;4.90;1.00;;;;;;5132906;27;19911;-72
2022/03/07 18:30:39;;;;;;;;;;;4.90;1.00;;;;;;5133575;27;19911;-72
2022/03/07 18:33:06;;;;;;;;;;;4.90;1.00;;;;;;5132850;27;19914;-72
2022/03/07 18:35:31;;;;;;;;;;;4.90;1.00;;;;;;5133604;27;19908;-72
2022/03/07 18:37:57;;;;;;;;;;;;;;;;;;5132857;27;19968;-73
2022/03/07 18:40:23;;;;;;;;;;;4.80;1.00;;;;;;5114953;27;19908;-71
2022/03/07 18:42:49;;;;;;;;;;;4.70;1.00;;;;;;5131043;27;20349;-72
2022/03/07 18:45:14;;;;;;;;;;;4.80;1.00;;;;;;5094088;28;19914;-72
2022/03/07 18:47:40;;;;;;;;;;;4.70;1.00;;;;;;5100295;28;20360;-73
2022/03/07 18:50:08;;;;;;;;;;;4.80;1.00;;;;;;5119345;27;20333;-73
2022/03/07 18:52:34;;;;;;;;;;;4.70;1.00;;;;;;5099672;27;19908;-72
2022/03/07 18:54:59;;;;;;;;;;;4.60;1.00;;;;;;5100438;27;19964;-73
2022/03/07 18:57:25;;;;;;;;;;;4.70;1.00;;;;;;5114517;28;19984;-72
2022/03/07 18:59:50;;;;;;;;;;;4.70;1.00;;;;;;5115747;28;19917;-72
2022/03/07 19:02:17;;;;;;;;;;;;;;;;;;5123643;28;19963;-74
2022/03/07 19:04:43;;;;;;;;;;;4.70;1.00;;;;;;5105654;28;19914;-71
2022/03/07 19:07:11;;;;;;;;;;;;;;;;;;5118750;28;19948;-73
2022/03/07 19:09:37;;;;;;;;;;;4.70;1.00;;;;;;5121130;28;19908;-73
2022/03/07 19:12:03;;;;;;;;;;;;;;;;;;5093506;28;20419;-74
2022/03/07 19:14:28;;;;;;;;;;;4.60;1.00;;;;;;5118256;28;19951;-73
2022/03/07 19:16:54;;;;;;;;;;;;;;;;;;5112411;28;19912;-73
2022/03/07 19:19:20;;;;;;;;;;;4.40;1.00;;;;;;5116287;28;20014;-72
2022/03/07 19:21:45;;;;;;;;;;;4.40;1.00;;;;;;5099358;28;20437;-73
2022/03/07 19:24:11;;;;;;;;;;;4.20;1.00;;;;;;5103558;28;19986;-73
2022/03/07 19:26:37;;;;;;;;;;;4.10;1.00;;;;;;5123590;28;19923;-73
2022/03/07 19:29:03;;;;;;;;;;;4.20;1.00;;;;;;5128406;28;19907;-73
2022/03/07 19:31:28;;;;;;;;;;;;;;;;;;5110531;28;20003;-74
2022/03/07 19:33:54;;;;;;;;;;;;;;;;;;5123819;28;19947;-73
2022/03/07 19:36:21;;;;;;;;;;;4.20;1.00;;;;;;5102791;28;19919;-73
2022/03/07 19:38:46;;;;;;;;;;;4.20;1.00;;;;;;5104528;28;19914;-73
2022/03/07 19:41:15;;;;;;;;;;;4.00;1.00;;;;;;5129041;28;19908;-72
2022/03/07 19:43:41;;;;;;;;;;;;;;;;;;5125659;28;19915;-72
2022/03/07 19:46:07;;;;;;;;;;;;;;;;;;5121905;28;19908;-72
2022/03/07 19:48:33;;;;;;;;;;;4.00;1.00;;;;;;5120708;28;19911;-73
2022/03/07 19:50:59;;;;;;;;;;;;;;;;;;5112884;28;19908;-75
2022/03/07 19:53:25;;;;;;;;;;;3.80;1.00;;;;;;5112604;28;20333;-72
2022/03/07 19:55:51;;;;;;;;;;;3.80;1.00;;;;;;5111830;28;19927;-72
2022/03/07 19:58:17;;;;;;;;;;;3.60;1.00;;;;;;5106384;28;19969;-72
2022/03/07 20:00:43;;;;;;;;;;;3.70;1.00;;;;;;5123782;28;20004;-72
2022/03/07 20:03:09;;;;;;;;;;;;;;;;;;5119764;27;20364;-72
2022/03/07 20:05:35;;;;;;;;;;;;;;;;;;5124887;27;20302;-72
2022/03/07 20:08:01;;;;;;;;;;;;;;;;;;5128951;27;19911;-75
2022/03/07 20:10:27;;;;;;;;;;;3.60;1.00;;;;;;5124530;27;20371;-72
2022/03/07 20:12:53;;;;;;;;;;;3.40;1.00;;;;;;5122790;27;19950;-71
2022/03/07 20:15:20;;;;;;;;;;;3.40;1.00;;;;;;5117709;27;19938;-72
2022/03/07 20:17:46;;;;;;;;;;;3.40;1.00;;;;;;5115431;28;19912;-73
2022/03/07 20:20:12;;;;;;;;;;;3.30;1.00;;;;;;5114609;28;19908;-72
2022/03/07 20:22:38;;;;;;;;;;;3.40;1.00;;;;;;5121453;27;19908;-72
2022/03/07 20:25:03;;;;;;;;;;;;;;;;;;5129616;27;19912;-75
2022/03/07 20:27:29;;;;;;;;;;;3.20;1.00;;;;;;5122270;27;19923;-72
2022/03/07 20:29:55;;;;;;;;;;;3.40;1.00;;;;;;5127640;27;19903;-72
2022/03/07 20:32:20;;;;;;;;;;;3.30;1.00;;;;;;5135456;27;19903;-73
2022/03/07 20:34:46;;;;;;;;;;;;;;;;;;5126647;27;19903;-73
2022/03/07 20:37:13;;;;;;;;;;;3.10;1.00;;;;;;5136505;27;19907;-72
2022/03/07 20:39:40;;;;;;;;;;;3.00;1.00;;;;;;5117784;27;19907;-73
2022/03/07 20:42:06;;;;;;;;;;;3.00;1.00;;;;;;5109809;27;19970;-73
2022/03/07 20:44:34;;;;;;;;;;;;;;;;;;5133073;27;19968;-75
2022/03/07 20:47:00;;;;;;;;;;;;;;;;;;5123261;27;19916;-75
2022/03/07 20:49:26;;;;;;;;;;;;;;;;;;5139421;27;19903;-75
2022/03/07 20:51:52;;;;;;;;;;;;;;;;;;5114114;27;20283;-71
2022/03/07 20:54:18;;;;;;;;;;;;;;;;;;5137822;27;19907;-75
2022/03/07 20:56:44;;;;;;;;;;;2.90;1.00;;;;;;5138578;27;20291;-72
2022/03/07 20:59:12;;;;;;;;;;;;;;;;;;5136575;27;19915;-72
2022/03/07 21:01:38;;;;;;;;;;;3.00;1.00;;;;;;5144804;27;19907;-70
2022/03/07 21:04:04;;;;;;;;;;;;;;;;;;5134994;27;20256;-70
2022/03/07 21:06:30;;;;;;;;;;;2.90;1.00;;;;;;5135016;27;19911;-71
2022/03/07 21:08:56;;;;;;;;;;;3.00;1.00;;;;;;5116224;27;19908;-70
2022/03/07 21:11:21;;;;;;;;;;;3.00;1.00;;;;;;5134817;27;19914;-70
2022/03/07 21:13:47;;;;;;;;;;;3.10;1.00;;;;;;5122273;27;19912;-70
2022/03/07 21:16:12;;;;;;;;;;;2.90;1.00;;;;;;5114716;27;19911;-70
2022/03/07 21:18:38;;;;;;;;;;;2.80;1.00;;;;;;5114501;28;20002;-70
2022/03/07 21:21:04;;;;;;;;;;;;;;;;;;5113918;28;20275;-72
2022/03/07 21:23:30;;;;;;;;;;;2.90;1.00;;;;;;5114465;28;20325;-70
2022/03/07 21:25:56;;;;;;;;;;;2.80;1.00;;;;;;5114228;28;19951;-70
2022/03/07 21:28:22;;;;;;;;;;;2.90;1.00;;;;;;5113502;28;19943;-70
2022/03/07 21:30:47;;;;;;;;;;;2.80;1.00;;;;;;5114327;28;19908;-70
2022/03/07 21:33:13;;;;;;;;;;;2.70;1.00;;;;;;5113460;28;19936;-71
2022/03/07 21:35:40;;;;;;;;;;;2.70;1.00;;;;;;5114097;28;20322;-70
2022/03/07 21:38:06;;;;;;;;;;;;;;;;;;5114869;27;19919;-72
2022/03/07 21:40:31;;;;;;;;;;;2.60;1.00;;;;;;5107624;27;19907;-70
2022/03/07 21:42:57;;;;;;;;;;;2.60;1.00;;;;;;5134548;27;19908;-70
2022/03/07 21:45:22;;;;;;;;;;;2.60;1.00;;;;;;5133755;27;19943;-70
2022/03/07 21:47:48;;;;;;;;;;;2.70;1.00;;;;;;5134484;27;19907;-70
2022/03/07 21:50:14;;;;;;;;;;;2.70;1.00;;;;;;5134044;27;19911;-70
2022/03/07 21:52:40;;;;;;;;;;;2.50;1.00;;;;;;5134337;27;20010;-70
2022/03/07 21:55:06;;;;;;;;;;;;;;;;;;5133732;27;19915;-74
2022/03/07 21:57:31;;;;;;;;;;;2.60;1.00;;;;;;5134050;27;19924;-70
2022/03/07 21:59:57;;;;;;;;;;;2.50;1.00;;;;;;5134274;27;19908;-70
2022/03/07 22:02:23;;;;;;;;;;;2.50;1.00;;;;;;5133388;27;19974;-70
2022/03/07 22:04:52;;;;;;;;;;;2.60;1.00;;;;;;5115697;27;19915;-70